Mc Connell Air Force Base
KIAB : now visible

Airfield :











YOU CAN JOIN US ON...

 
LOGIN :

Register | Disclaimer

   EN    FR    IT 

 









Legend :    VFR   Marginal VFR   IFR   Intensive IFR   Very Intensive IFR
Visi :
Ceiling :
>= 8 km
>= 3000ft
5 to 8 km
1000 to 3000 ft
1500m to 5 km
500 to 1000 ft
800 to 1500m
200 to 500 ft
< 800m
< 200 ft
Symbols :   Thunderstorms  Fog  Heavy snow  Heavy precipitations  Wind > 20 kt






- Airport Elevation : 1371 ft
- IATA code : IAB


KIAB - Mc Connell Air Force Base

CURRENT METAR :
  • 071556Z 21010KT 10SM CLR 31/20 A3003 RMK AO2A SLPNO ALSTG ESTMD $

EXPIRED METARs :
  • 071456Z 21013KT 10SM CLR 28/20 A3002 RMK AO2A SLPNO ALSTG ESTMD 50003 $
  • 071356Z 21011KT 10SM FEW130 28/20 A3003 RMK AO2A SLPNO ALSTG ESTMD $

TAF TAF KIAB
Valid from the 07 at 10:00 until the 08 at 16:00 UTC


071000Z 0710/0816 19012KT 9999 SCT100 QNH3001INS
BECMG 0714/0715 19012G18KT 9999 FEW100 QNH3002INS
BECMG 0717/0718 20012G22KT 9999 SKC QNH2992INS
BECMG 0802/0803 VRB06KT 9999 FEW060 QNH3000INS
BECMG 0814/0815 33006KT 9999 SCT050 QNH3002INS TX39/0721Z TN25/0712Z
KZKC FIR / North America



MET'MAP, your aeronautical weather chart ! - Copyright ORBIFLY December 2007 - Disclaimer

ORBIFLY MET'MAP TEAM :

Programming & Development : Alexandra Zaïnal
Original concept : Baudouin d'Aumeries
Technical & hardware support : Manuel Goepfert
Assistance : Marc-Olivier Méhu




SOURCES & CREDITS :

   NOAA       Earth
Advisory